Time;durP1;ratioP1;P1;durP2;ratioP2;P2;SDS_P1;SDS_P2;PMS_P1;PMS_P2;Temp;Humidity;BMP_temperature;BMP_pressure;BME280_temperature;BME280_humidity;BME280_pressure;Samples;Min_cycle;Max_cycle;Signal;HPM_P1;HPM_P2
2022/04/29 00:00:05;;;;;;;6.3;5.15;;;;;;;3.94;51.72559;96169.08;;;;
2022/04/29 00:01:09;;;;;;;6.3;5.15;;;;;;;3.94;51.72559;96169.08;;;;
2022/04/29 00:02:09;;;;;;;6.3;5.15;;;;;;;3.94;51.72559;96169.08;;;;
2022/04/29 00:03:11;;;;;;;6.3;5.15;;;;;;;3.94;51.72559;96169.08;;;;
2022/04/29 00:04:13;;;;;;;6.3;5.15;;;;;;;3.94;51.72559;96169.08;;;;
2022/04/29 00:05:14;;;;;;;6.3;5.15;;;;;;;3.94;51.72559;96169.08;;;;
2022/04/29 00:06:14;;;;;;;6.3;5.15;;;;;;;3.94;51.72559;96169.08;;;;
2022/04/29 00:07:15;;;;;;;6.3;5.15;;;;;;;3.94;51.72559;96169.08;;;;
2022/04/29 00:08:16;;;;;;;6.3;5.15;;;;;;;3.94;51.72559;96169.08;;;;
2022/04/29 00:09:17;;;;;;;6.3;5.15;;;;;;;3.94;51.72559;96169.08;;;;
2022/04/29 00:10:17;;;;;;;8.1;5.4;;;;;;;3.82;51.9668;96166.85;;;;
2022/04/29 00:11:20;;;;;;;8.1;5.4;;;;;;;3.82;51.9668;96166.85;;;;
2022/04/29 00:12:21;;;;;;;8.1;5.4;;;;;;;3.82;51.9668;96166.85;;;;
2022/04/29 00:13:22;;;;;;;8.1;5.4;;;;;;;3.82;51.9668;96166.85;;;;
2022/04/29 00:14:23;;;;;;;8.1;5.4;;;;;;;3.82;51.9668;96166.85;;;;
2022/04/29 00:15:24;;;;;;;8.1;5.4;;;;;;;3.82;51.9668;96166.85;;;;
2022/04/29 00:16:26;;;;;;;8.1;5.4;;;;;;;3.82;51.9668;96166.85;;;;
2022/04/29 00:17:27;;;;;;;8.1;5.4;;;;;;;3.82;51.9668;96166.85;;;;
2022/04/29 00:18:27;;;;;;;8.1;5.4;;;;;;;3.82;51.9668;96166.85;;;;
2022/04/29 00:19:28;;;;;;;8.1;5.4;;;;;;;3.82;51.9668;96166.85;;;;
2022/04/29 00:20:28;;;;;;;6.299999;5.25;;;;;;;3.75;52.13867;96148.02;;;;
2022/04/29 00:21:29;;;;;;;6.299999;5.25;;;;;;;3.75;52.13867;96148.02;;;;
2022/04/29 00:22:29;;;;;;;6.299999;5.25;;;;;;;3.75;52.13867;96148.02;;;;
2022/04/29 00:23:30;;;;;;;6.299999;5.25;;;;;;;3.75;52.13867;96148.02;;;;
2022/04/29 00:24:31;;;;;;;6.299999;5.25;;;;;;;3.75;52.13867;96148.02;;;;
2022/04/29 00:25:31;;;;;;;6.299999;5.25;;;;;;;3.75;52.13867;96148.02;;;;
2022/04/29 00:26:32;;;;;;;6.299999;5.25;;;;;;;3.75;52.13867;96148.02;;;;
2022/04/29 00:27:32;;;;;;;6.299999;5.25;;;;;;;3.75;52.13867;96148.02;;;;
2022/04/29 00:28:33;;;;;;;6.299999;5.25;;;;;;;3.75;52.13867;96148.02;;;;
2022/04/29 00:29:33;;;;;;;6.299999;5.25;;;;;;;3.75;52.13867;96148.02;;;;
2022/04/29 00:30:34;;;;;;;6.299999;5.25;;;;;;;3.75;52.13867;96148.02;;;;
2022/04/29 00:31:35;;;;;;;6.5;5.349999;;;;;;;3.59;52.42676;96141.83;;;;
2022/04/29 00:32:35;;;;;;;6.5;5.349999;;;;;;;3.59;52.42676;96141.83;;;;
2022/04/29 00:33:36;;;;;;;6.5;5.349999;;;;;;;3.59;52.42676;96141.83;;;;
2022/04/29 00:34:36;;;;;;;6.5;5.349999;;;;;;;3.59;52.42676;96141.83;;;;
2022/04/29 00:35:37;;;;;;;6.5;5.349999;;;;;;;3.59;52.42676;96141.83;;;;
2022/04/29 00:36:37;;;;;;;6.5;5.349999;;;;;;;3.59;52.42676;96141.83;;;;
2022/04/29 00:37:38;;;;;;;6.5;5.349999;;;;;;;3.59;52.42676;96141.83;;;;
2022/04/29 00:38:43;;;;;;;6.5;5.349999;;;;;;;3.59;52.42676;96141.83;;;;
2022/04/29 00:39:44;;;;;;;6.5;5.349999;;;;;;;3.59;52.42676;96141.83;;;;
2022/04/29 00:40:45;;;;;;;6.5;5.349999;;;;;;;3.59;52.42676;96141.83;;;;
2022/04/29 00:41:46;;;;;;;5.95;5.35;;;;;;;3.51;52.75391;96139.28;;;;
2022/04/29 00:42:47;;;;;;;5.95;5.35;;;;;;;3.51;52.75391;96139.28;;;;
2022/04/29 00:43:47;;;;;;;5.95;5.35;;;;;;;3.51;52.75391;96139.28;;;;
2022/04/29 00:44:58;;;;;;;5.95;5.35;;;;;;;3.51;52.75391;96139.28;;;;
2022/04/29 00:45:59;;;;;;;5.95;5.35;;;;;;;3.51;52.75391;96139.28;;;;
2022/04/29 00:46:59;;;;;;;5.95;5.35;;;;;;;3.51;52.75391;96139.28;;;;
2022/04/29 00:48:00;;;;;;;5.95;5.35;;;;;;;3.51;52.75391;96139.28;;;;
2022/04/29 00:49:00;;;;;;;5.95;5.35;;;;;;;3.51;52.75391;96139.28;;;;
2022/04/29 00:50:01;;;;;;;5.95;5.35;;;;;;;3.51;52.75391;96139.28;;;;
2022/04/29 00:51:02;;;;;;;5.95;5.35;;;;;;;3.51;52.75391;96139.28;;;;
2022/04/29 00:52:03;;;;;;;5.95;5.35;;;;;;;3.51;52.75391;96139.28;;;;
2022/04/29 00:53:07;;;;;;;6.35;5.25;;;;;;;3.35;52.95801;96129.46;;;;
2022/04/29 00:54:11;;;;;;;6.35;5.25;;;;;;;3.35;52.95801;96129.46;;;;
2022/04/29 00:55:14;;;;;;;6.35;5.25;;;;;;;3.35;52.95801;96129.46;;;;
2022/04/29 00:56:16;;;;;;;6.35;5.25;;;;;;;3.35;52.95801;96129.46;;;;
2022/04/29 00:57:19;;;;;;;6.35;5.25;;;;;;;3.35;52.95801;96129.46;;;;
2022/04/29 00:58:25;;;;;;;6.35;5.25;;;;;;;3.35;52.95801;96129.46;;;;
2022/04/29 00:59:32;;;;;;;6.35;5.25;;;;;;;3.35;52.95801;96129.46;;;;
2022/04/29 01:00:38;;;;;;;6.35;5.25;;;;;;;3.35;52.95801;96129.46;;;;
2022/04/29 01:01:39;;;;;;;6.35;5.25;;;;;;;3.35;52.95801;96129.46;;;;
2022/04/29 01:02:41;;;;;;;6.35;5.25;;;;;;;3.35;52.95801;96129.46;;;;
2022/04/29 01:03:45;;;;;;;7.05;5.6;;;;;;;3.16;53.31543;96125.36;;;;
2022/04/29 01:04:46;;;;;;;7.05;5.6;;;;;;;3.16;53.31543;96125.36;;;;
2022/04/29 01:05:54;;;;;;;7.05;5.6;;;;;;;3.16;53.31543;96125.36;;;;
2022/04/29 01:06:54;;;;;;;7.05;5.6;;;;;;;3.16;53.31543;96125.36;;;;
2022/04/29 01:07:55;;;;;;;7.05;5.6;;;;;;;3.16;53.31543;96125.36;;;;
2022/04/29 01:08:55;;;;;;;7.05;5.6;;;;;;;3.16;53.31543;96125.36;;;;
2022/04/29 01:09:56;;;;;;;7.05;5.6;;;;;;;3.16;53.31543;96125.36;;;;
2022/04/29 01:10:57;;;;;;;7.05;5.6;;;;;;;3.16;53.31543;96125.36;;;;
2022/04/29 01:11:58;;;;;;;7.05;5.6;;;;;;;3.16;53.31543;96125.36;;;;
2022/04/29 01:12:58;;;;;;;7.05;5.6;;;;;;;3.16;53.31543;96125.36;;;;
2022/04/29 01:14:03;;;;;;;7.55;5.799999;;;;;;;3.02;53.57324;96102.01;;;;
2022/04/29 01:15:04;;;;;;;7.55;5.799999;;;;;;;3.02;53.57324;96102.01;;;;
2022/04/29 01:16:08;;;;;;;7.55;5.799999;;;;;;;3.02;53.57324;96102.01;;;;
2022/04/29 01:17:09;;;;;;;7.55;5.799999;;;;;;;3.02;53.57324;96102.01;;;;
2022/04/29 01:18:09;;;;;;;7.55;5.799999;;;;;;;3.02;53.57324;96102.01;;;;
2022/04/29 01:19:10;;;;;;;7.55;5.799999;;;;;;;3.02;53.57324;96102.01;;;;
2022/04/29 01:20:10;;;;;;;7.55;5.799999;;;;;;;3.02;53.57324;96102.01;;;;
2022/04/29 01:21:13;;;;;;;7.55;5.799999;;;;;;;3.02;53.57324;96102.01;;;;
2022/04/29 01:22:14;;;;;;;7.55;5.799999;;;;;;;3.02;53.57324;96102.01;;;;
2022/04/29 01:23:15;;;;;;;7.55;5.799999;;;;;;;3.02;53.57324;96102.01;;;;
2022/04/29 01:24:15;;;;;;;7.55;5.799999;;;;;;;3.02;53.57324;96102.01;;;;
2022/04/29 01:25:16;;;;;;;7.050001;5.799999;;;;;;;2.9;53.86523;96102.96;;;;
2022/04/29 01:26:16;;;;;;;7.050001;5.799999;;;;;;;2.9;53.86523;96102.96;;;;
2022/04/29 01:27:17;;;;;;;7.050001;5.799999;;;;;;;2.9;53.86523;96102.96;;;;
2022/04/29 01:28:17;;;;;;;7.050001;5.799999;;;;;;;2.9;53.86523;96102.96;;;;
2022/04/29 01:29:18;;;;;;;7.050001;5.799999;;;;;;;2.9;53.86523;96102.96;;;;
2022/04/29 01:30:21;;;;;;;7.050001;5.799999;;;;;;;2.9;53.86523;96102.96;;;;
2022/04/29 01:31:22;;;;;;;7.050001;5.799999;;;;;;;2.9;53.86523;96102.96;;;;
2022/04/29 01:32:23;;;;;;;7.050001;5.799999;;;;;;;2.9;53.86523;96102.96;;;;
2022/04/29 01:33:25;;;;;;;7.050001;5.799999;;;;;;;2.9;53.86523;96102.96;;;;
2022/04/29 01:34:26;;;;;;;7.050001;5.799999;;;;;;;2.9;53.86523;96102.96;;;;
2022/04/29 01:35:26;;;;;;;8.799999;5.599999;;;;;;;2.8;54.09473;96109.9;;;;
2022/04/29 01:36:27;;;;;;;8.799999;5.599999;;;;;;;2.8;54.09473;96109.9;;;;
2022/04/29 01:37:28;;;;;;;8.799999;5.599999;;;;;;;2.8;54.09473;96109.9;;;;
2022/04/29 01:38:28;;;;;;;8.799999;5.599999;;;;;;;2.8;54.09473;96109.9;;;;
2022/04/29 01:39:29;;;;;;;8.799999;5.599999;;;;;;;2.8;54.09473;96109.9;;;;
2022/04/29 01:40:29;;;;;;;8.799999;5.599999;;;;;;;2.8;54.09473;96109.9;;;;
2022/04/29 01:41:32;;;;;;;8.799999;5.599999;;;;;;;2.8;54.09473;96109.9;;;;
2022/04/29 01:42:33;;;;;;;8.799999;5.599999;;;;;;;2.8;54.09473;96109.9;;;;
2022/04/29 01:43:33;;;;;;;8.799999;5.599999;;;;;;;2.8;54.09473;96109.9;;;;
2022/04/29 01:44:35;;;;;;;8.799999;5.599999;;;;;;;2.8;54.09473;96109.9;;;;
2022/04/29 01:45:35;;;;;;;8.799999;5.599999;;;;;;;2.8;54.09473;96109.9;;;;
2022/04/29 01:46:36;;;;;;;6.05;5.349999;;;;;;;2.71;54.34766;96101.08;;;;
2022/04/29 01:47:37;;;;;;;6.05;5.349999;;;;;;;2.71;54.34766;96101.08;;;;
2022/04/29 01:48:38;;;;;;;6.05;5.349999;;;;;;;2.71;54.34766;96101.08;;;;
2022/04/29 01:49:39;;;;;;;6.05;5.349999;;;;;;;2.71;54.34766;96101.08;;;;
2022/04/29 01:50:39;;;;;;;6.05;5.349999;;;;;;;2.71;54.34766;96101.08;;;;
2022/04/29 01:51:40;;;;;;;6.05;5.349999;;;;;;;2.71;54.34766;96101.08;;;;
2022/04/29 01:52:40;;;;;;;6.05;5.349999;;;;;;;2.71;54.34766;96101.08;;;;
2022/04/29 01:53:41;;;;;;;6.05;5.349999;;;;;;;2.71;54.34766;96101.08;;;;
2022/04/29 01:54:41;;;;;;;6.05;5.349999;;;;;;;2.71;54.34766;96101.08;;;;
2022/04/29 01:55:42;;;;;;;6.05;5.349999;;;;;;;2.71;54.34766;96101.08;;;;
2022/04/29 01:56:42;;;;;;;6.95;5.8;;;;;;;2.66;54.5;96101.67;;;;
2022/04/29 01:57:43;;;;;;;6.95;5.8;;;;;;;2.66;54.5;96101.67;;;;
2022/04/29 01:58:44;;;;;;;6.95;5.8;;;;;;;2.66;54.5;96101.67;;;;
2022/04/29 01:59:45;;;;;;;6.95;5.8;;;;;;;2.66;54.5;96101.67;;;;
2022/04/29 02:00:45;;;;;;;6.95;5.8;;;;;;;2.66;54.5;96101.67;;;;
2022/04/29 02:01:46;;;;;;;6.95;5.8;;;;;;;2.66;54.5;96101.67;;;;
2022/04/29 02:02:47;;;;;;;6.95;5.8;;;;;;;2.66;54.5;96101.67;;;;
2022/04/29 02:03:47;;;;;;;6.95;5.8;;;;;;;2.66;54.5;96101.67;;;;
2022/04/29 02:04:47;;;;;;;6.95;5.8;;;;;;;2.66;54.5;96101.67;;;;
2022/04/29 02:05:48;;;;;;;6.95;5.8;;;;;;;2.66;54.5;96101.67;;;;
2022/04/29 02:06:49;;;;;;;6.95;5.8;;;;;;;2.66;54.5;96101.67;;;;
2022/04/29 02:07:49;;;;;;;6.95;5.8;;;;;;;2.66;54.5;96101.67;;;;
2022/04/29 02:08:50;;;;;;;6.95;5.8;;;;;;;2.66;54.5;96101.67;;;;
2022/04/29 02:09:50;;;;;;;6.95;5.8;;;;;;;2.66;54.5;96101.67;;;;
2022/04/29 02:10:51;;;;;;;6.95;5.8;;;;;;;2.66;54.5;96101.67;;;;
2022/04/29 02:12:07;;;;;;;6.95;5.8;;;;;;;2.66;54.5;96101.67;;;;
2022/04/29 02:13:08;;;;;;;6.95;5.8;;;;;;;2.66;54.5;96101.67;;;;
2022/04/29 02:14:09;;;;;;;6.95;5.8;;;;;;;2.66;54.5;96101.67;;;;
2022/04/29 02:15:10;;;;;;;6.95;5.8;;;;;;;2.66;54.5;96101.67;;;;
2022/04/29 02:16:10;;;;;;;6.95;5.8;;;;;;;2.66;54.5;96101.67;;;;
2022/04/29 02:17:11;;;;;;;6.95;5.8;;;;;;;2.66;54.5;96101.67;;;;
2022/04/29 02:18:12;;;;;;;6.900001;6.099999;;;;;;;2.46;54.88574;96081.26;;;;
2022/04/29 02:19:12;;;;;;;6.900001;6.099999;;;;;;;2.46;54.88574;96081.26;;;;
2022/04/29 02:20:13;;;;;;;6.900001;6.099999;;;;;;;2.46;54.88574;96081.26;;;;
2022/04/29 02:21:13;;;;;;;6.900001;6.099999;;;;;;;2.46;54.88574;96081.26;;;;
2022/04/29 02:22:14;;;;;;;6.900001;6.099999;;;;;;;2.46;54.88574;96081.26;;;;
2022/04/29 02:23:15;;;;;;;6.900001;6.099999;;;;;;;2.46;54.88574;96081.26;;;;
2022/04/29 02:24:15;;;;;;;6.900001;6.099999;;;;;;;2.46;54.88574;96081.26;;;;
2022/04/29 02:25:16;;;;;;;6.900001;6.099999;;;;;;;2.46;54.88574;96081.26;;;;
2022/04/29 02:26:16;;;;;;;6.900001;6.099999;;;;;;;2.46;54.88574;96081.26;;;;
2022/04/29 02:27:17;;;;;;;6.900001;6.099999;;;;;;;2.46;54.88574;96081.26;;;;
2022/04/29 02:28:17;;;;;;;6.900001;6.099999;;;;;;;2.46;54.88574;96081.26;;;;
2022/04/29 02:29:18;;;;;;;6.900001;6.099999;;;;;;;2.46;54.88574;96081.26;;;;
2022/04/29 02:30:18;;;;;;;6.900001;6.099999;;;;;;;2.46;54.88574;96081.26;;;;
2022/04/29 02:31:18;;;;;;;6.900001;6.099999;;;;;;;2.46;54.88574;96081.26;;;;
2022/04/29 02:32:19;;;;;;;6.900001;6.099999;;;;;;;2.46;54.88574;96081.26;;;;
2022/04/29 02:33:19;;;;;;;6.900001;6.099999;;;;;;;2.46;54.88574;96081.26;;;;
2022/04/29 02:34:20;;;;;;;6.900001;6.099999;;;;;;;2.46;54.88574;96081.26;;;;
2022/04/29 02:35:20;;;;;;;6.900001;6.099999;;;;;;;2.46;54.88574;96081.26;;;;
2022/04/29 02:36:21;;;;;;;6.900001;6.099999;;;;;;;2.46;54.88574;96081.26;;;;
2022/04/29 02:37:21;;;;;;;6.900001;6.099999;;;;;;;2.46;54.88574;96081.26;;;;
2022/04/29 02:38:22;;;;;;;6.900001;6.099999;;;;;;;2.46;54.88574;96081.26;;;;
2022/04/29 02:39:22;;;;;;;8.7;6.349999;;;;;;;2.31;55.42676;96073.1;;;;
2022/04/29 02:40:24;;;;;;;8.7;6.349999;;;;;;;2.31;55.42676;96073.1;;;;
2022/04/29 02:41:25;;;;;;;8.7;6.349999;;;;;;;2.31;55.42676;96073.1;;;;
2022/04/29 02:42:27;;;;;;;8.7;6.349999;;;;;;;2.31;55.42676;96073.1;;;;
2022/04/29 02:43:27;;;;;;;8.7;6.349999;;;;;;;2.31;55.42676;96073.1;;;;
2022/04/29 02:44:28;;;;;;;8.7;6.349999;;;;;;;2.31;55.42676;96073.1;;;;
2022/04/29 02:45:28;;;;;;;8.7;6.349999;;;;;;;2.31;55.42676;96073.1;;;;
2022/04/29 02:46:29;;;;;;;8.7;6.349999;;;;;;;2.31;55.42676;96073.1;;;;
2022/04/29 02:47:31;;;;;;;8.7;6.349999;;;;;;;2.31;55.42676;96073.1;;;;
2022/04/29 02:48:31;;;;;;;8.7;6.349999;;;;;;;2.31;55.42676;96073.1;;;;
2022/04/29 02:49:32;;;;;;;8.7;6.349999;;;;;;;2.31;55.42676;96073.1;;;;
2022/04/29 02:50:32;;;;;;;8.7;6.349999;;;;;;;2.31;55.42676;96073.1;;;;
2022/04/29 02:51:33;;;;;;;8.7;6.349999;;;;;;;2.31;55.42676;96073.1;;;;
2022/04/29 02:52:33;;;;;;;8.7;6.349999;;;;;;;2.31;55.42676;96073.1;;;;
2022/04/29 02:53:34;;;;;;;8.7;6.349999;;;;;;;2.31;55.42676;96073.1;;;;
2022/04/29 02:54:34;;;;;;;8.7;6.349999;;;;;;;2.31;55.42676;96073.1;;;;
2022/04/29 02:55:35;;;;;;;8.7;6.349999;;;;;;;2.31;55.42676;96073.1;;;;
2022/04/29 02:56:36;;;;;;;8.7;6.349999;;;;;;;2.31;55.42676;96073.1;;;;
2022/04/29 02:57:36;;;;;;;8.7;6.349999;;;;;;;2.31;55.42676;96073.1;;;;
2022/04/29 02:58:37;;;;;;;8.7;6.349999;;;;;;;2.31;55.42676;96073.1;;;;
2022/04/29 02:59:37;;;;;;;8.7;6.349999;;;;;;;2.31;55.42676;96073.1;;;;
2022/04/29 03:00:38;;;;;;;8.950002;6.349999;;;;;;;2.05;55.79395;96053.78;;;;
2022/04/29 03:01:39;;;;;;;8.950002;6.349999;;;;;;;2.05;55.79395;96053.78;;;;
2022/04/29 03:02:39;;;;;;;8.950002;6.349999;;;;;;;2.05;55.79395;96053.78;;;;
2022/04/29 03:03:40;;;;;;;8.950002;6.349999;;;;;;;2.05;55.79395;96053.78;;;;
2022/04/29 03:04:40;;;;;;;8.950002;6.349999;;;;;;;2.05;55.79395;96053.78;;;;
2022/04/29 03:05:40;;;;;;;8.950002;6.349999;;;;;;;2.05;55.79395;96053.78;;;;
2022/04/29 03:06:41;;;;;;;8.950002;6.349999;;;;;;;2.05;55.79395;96053.78;;;;
2022/04/29 03:07:42;;;;;;;8.950002;6.349999;;;;;;;2.05;55.79395;96053.78;;;;
2022/04/29 03:08:42;;;;;;;8.950002;6.349999;;;;;;;2.05;55.79395;96053.78;;;;
2022/04/29 03:09:43;;;;;;;8.950002;6.349999;;;;;;;2.05;55.79395;96053.78;;;;
2022/04/29 03:10:43;;;;;;;8.950002;6.349999;;;;;;;2.05;55.79395;96053.78;;;;
2022/04/29 03:11:44;;;;;;;10.3;7.299999;;;;;;;1.9;56.0918;96034.95;;;;
2022/04/29 03:12:44;;;;;;;10.3;7.299999;;;;;;;1.9;56.0918;96034.95;;;;
2022/04/29 03:13:45;;;;;;;10.3;7.299999;;;;;;;1.9;56.0918;96034.95;;;;
2022/04/29 03:14:45;;;;;;;10.3;7.299999;;;;;;;1.9;56.0918;96034.95;;;;
2022/04/29 03:15:46;;;;;;;10.3;7.299999;;;;;;;1.9;56.0918;96034.95;;;;
2022/04/29 03:16:46;;;;;;;10.3;7.299999;;;;;;;1.9;56.0918;96034.95;;;;
2022/04/29 03:18:20;;;;;;;10.3;7.299999;;;;;;;1.9;56.0918;96034.95;;;;
2022/04/29 03:19:21;;;;;;;10.3;7.299999;;;;;;;1.9;56.0918;96034.95;;;;
2022/04/29 03:20:21;;;;;;;10.3;7.299999;;;;;;;1.9;56.0918;96034.95;;;;
2022/04/29 03:21:22;;;;;;;10.3;7.299999;;;;;;;1.9;56.0918;96034.95;;;;
2022/04/29 03:22:23;;;;;;;8.850001;6.5;;;;;;;1.87;56.28516;96032.7;;;;
2022/04/29 03:23:23;;;;;;;8.850001;6.5;;;;;;;1.87;56.28516;96032.7;;;;
2022/04/29 03:24:24;;;;;;;8.850001;6.5;;;;;;;1.87;56.28516;96032.7;;;;
2022/04/29 03:25:25;;;;;;;8.850001;6.5;;;;;;;1.87;56.28516;96032.7;;;;
2022/04/29 03:26:26;;;;;;;8.850001;6.5;;;;;;;1.87;56.28516;96032.7;;;;
2022/04/29 03:27:26;;;;;;;8.850001;6.5;;;;;;;1.87;56.28516;96032.7;;;;
2022/04/29 03:28:27;;;;;;;8.850001;6.5;;;;;;;1.87;56.28516;96032.7;;;;
2022/04/29 03:29:27;;;;;;;8.850001;6.5;;;;;;;1.87;56.28516;96032.7;;;;
2022/04/29 03:30:27;;;;;;;8.850001;6.5;;;;;;;1.87;56.28516;96032.7;;;;
2022/04/29 03:31:28;;;;;;;8.850001;6.5;;;;;;;1.87;56.28516;96032.7;;;;
2022/04/29 03:32:29;;;;;;;8.850001;6.5;;;;;;;1.87;56.28516;96032.7;;;;
2022/04/29 03:33:29;;;;;;;8.65;7;;;;;;;1.85;56.35742;96033.36;;;;
2022/04/29 03:34:30;;;;;;;8.65;7;;;;;;;1.85;56.35742;96033.36;;;;
2022/04/29 03:35:30;;;;;;;8.65;7;;;;;;;1.85;56.35742;96033.36;;;;
2022/04/29 03:36:37;;;;;;;8.65;7;;;;;;;1.85;56.35742;96033.36;;;;
2022/04/29 03:37:37;;;;;;;8.65;7;;;;;;;1.85;56.35742;96033.36;;;;
2022/04/29 03:38:38;;;;;;;8.65;7;;;;;;;1.85;56.35742;96033.36;;;;
2022/04/29 03:39:39;;;;;;;8.65;7;;;;;;;1.85;56.35742;96033.36;;;;
2022/04/29 03:40:39;;;;;;;8.65;7;;;;;;;1.85;56.35742;96033.36;;;;
2022/04/29 03:41:40;;;;;;;8.65;7;;;;;;;1.85;56.35742;96033.36;;;;
2022/04/29 03:42:40;;;;;;;8.65;7;;;;;;;1.85;56.35742;96033.36;;;;
2022/04/29 03:43:41;;;;;;;8.650002;6.2;;;;;;;1.77;56.5166;96033.75;;;;
2022/04/29 03:44:41;;;;;;;8.650002;6.2;;;;;;;1.77;56.5166;96033.75;;;;
2022/04/29 03:45:42;;;;;;;8.650002;6.2;;;;;;;1.77;56.5166;96033.75;;;;
2022/04/29 03:46:42;;;;;;;8.650002;6.2;;;;;;;1.77;56.5166;96033.75;;;;
2022/04/29 03:47:43;;;;;;;8.650002;6.2;;;;;;;1.77;56.5166;96033.75;;;;
2022/04/29 03:49:49;;;;;;;8.650002;6.2;;;;;;;1.77;56.5166;96033.75;;;;
2022/04/29 03:50:49;;;;;;;8.650002;6.2;;;;;;;1.77;56.5166;96033.75;;;;
2022/04/29 03:51:50;;;;;;;8.650002;6.2;;;;;;;1.77;56.5166;96033.75;;;;
2022/04/29 03:52:50;;;;;;;8.650002;6.2;;;;;;;1.77;56.5166;96033.75;;;;
2022/04/29 03:53:52;;;;;;;8.650002;6.2;;;;;;;1.77;56.5166;96033.75;;;;
2022/04/29 03:54:53;;;;;;;8.799999;6.45;;;;;;;1.62;56.73828;96033.65;;;;
2022/04/29 03:55:53;;;;;;;8.799999;6.45;;;;;;;1.62;56.73828;96033.65;;;;
2022/04/29 03:56:54;;;;;;;8.799999;6.45;;;;;;;1.62;56.73828;96033.65;;;;
2022/04/29 03:57:54;;;;;;;8.799999;6.45;;;;;;;1.62;56.73828;96033.65;;;;
2022/04/29 03:58:56;;;;;;;8.799999;6.45;;;;;;;1.62;56.73828;96033.65;;;;
2022/04/29 03:59:56;;;;;;;8.799999;6.45;;;;;;;1.62;56.73828;96033.65;;;;
2022/04/29 04:00:57;;;;;;;8.799999;6.45;;;;;;;1.62;56.73828;96033.65;;;;
2022/04/29 04:01:57;;;;;;;8.799999;6.45;;;;;;;1.62;56.73828;96033.65;;;;
2022/04/29 04:02:57;;;;;;;8.799999;6.45;;;;;;;1.62;56.73828;96033.65;;;;
2022/04/29 04:03:59;;;;;;;8.799999;6.45;;;;;;;1.62;56.73828;96033.65;;;;
2022/04/29 04:04:59;;;;;;;8.05;6.099999;;;;;;;1.47;57.05566;96030.78;;;;
2022/04/29 04:07:05;;;;;;;8.05;6.099999;;;;;;;1.47;57.05566;96030.78;;;;
2022/04/29 04:08:05;;;;;;;8.05;6.099999;;;;;;;1.47;57.05566;96030.78;;;;
2022/04/29 04:09:06;;;;;;;8.05;6.099999;;;;;;;1.47;57.05566;96030.78;;;;
2022/04/29 04:10:07;;;;;;;8.05;6.099999;;;;;;;1.47;57.05566;96030.78;;;;
2022/04/29 04:11:08;;;;;;;8.05;6.099999;;;;;;;1.47;57.05566;96030.78;;;;
2022/04/29 04:12:08;;;;;;;8.05;6.099999;;;;;;;1.47;57.05566;96030.78;;;;
2022/04/29 04:13:09;;;;;;;8.05;6.099999;;;;;;;1.47;57.05566;96030.78;;;;
2022/04/29 04:14:11;;;;;;;8.05;6.099999;;;;;;;1.47;57.05566;96030.78;;;;
2022/04/29 04:15:11;;;;;;;8.05;6.099999;;;;;;;1.47;57.05566;96030.78;;;;
2022/04/29 04:16:13;;;;;;;9.299999;6.6;;;;;;;1.39;57.22363;96036.97;;;;
2022/04/29 04:17:14;;;;;;;9.299999;6.6;;;;;;;1.39;57.22363;96036.97;;;;
2022/04/29 04:18:14;;;;;;;9.299999;6.6;;;;;;;1.39;57.22363;96036.97;;;;
2022/04/29 04:19:14;;;;;;;9.299999;6.6;;;;;;;1.39;57.22363;96036.97;;;;
2022/04/29 04:20:16;;;;;;;9.299999;6.6;;;;;;;1.39;57.22363;96036.97;;;;
2022/04/29 04:21:16;;;;;;;9.299999;6.6;;;;;;;1.39;57.22363;96036.97;;;;
2022/04/29 04:22:17;;;;;;;9.299999;6.6;;;;;;;1.39;57.22363;96036.97;;;;
2022/04/29 04:23:17;;;;;;;9.299999;6.6;;;;;;;1.39;57.22363;96036.97;;;;
2022/04/29 04:24:18;;;;;;;9.299999;6.6;;;;;;;1.39;57.22363;96036.97;;;;
2022/04/29 04:25:18;;;;;;;9.299999;6.6;;;;;;;1.39;57.22363;96036.97;;;;
2022/04/29 04:26:19;;;;;;;10.15;6.85;;;;;;;1.38;57.44434;96045.89;;;;
2022/04/29 04:27:20;;;;;;;10.15;6.85;;;;;;;1.38;57.44434;96045.89;;;;
2022/04/29 04:28:20;;;;;;;10.15;6.85;;;;;;;1.38;57.44434;96045.89;;;;
2022/04/29 04:29:21;;;;;;;10.15;6.85;;;;;;;1.38;57.44434;96045.89;;;;
2022/04/29 04:30:21;;;;;;;10.15;6.85;;;;;;;1.38;57.44434;96045.89;;;;
2022/04/29 04:31:24;;;;;;;10.15;6.85;;;;;;;1.38;57.44434;96045.89;;;;
2022/04/29 04:32:24;;;;;;;10.15;6.85;;;;;;;1.38;57.44434;96045.89;;;;
2022/04/29 04:33:25;;;;;;;10.15;6.85;;;;;;;1.38;57.44434;96045.89;;;;
2022/04/29 04:34:58;;;;;;;10.15;6.85;;;;;;;1.38;57.44434;96045.89;;;;
2022/04/29 04:35:59;;;;;;;10.15;6.85;;;;;;;1.38;57.44434;96045.89;;;;
2022/04/29 04:37:00;;;;;;;8.4;7.000001;;;;;;;1.42;57.50098;96064.61;;;;
2022/04/29 04:38:00;;;;;;;8.4;7.000001;;;;;;;1.42;57.50098;96064.61;;;;
2022/04/29 04:39:01;;;;;;;8.4;7.000001;;;;;;;1.42;57.50098;96064.61;;;;
2022/04/29 04:40:03;;;;;;;8.4;7.000001;;;;;;;1.42;57.50098;96064.61;;;;
2022/04/29 04:41:04;;;;;;;8.4;7.000001;;;;;;;1.42;57.50098;96064.61;;;;
2022/04/29 04:42:06;;;;;;;8.4;7.000001;;;;;;;1.42;57.50098;96064.61;;;;
2022/04/29 04:43:07;;;;;;;8.4;7.000001;;;;;;;1.42;57.50098;96064.61;;;;
2022/04/29 04:44:08;;;;;;;8.4;7.000001;;;;;;;1.42;57.50098;96064.61;;;;
2022/04/29 04:45:09;;;;;;;8.4;7.000001;;;;;;;1.42;57.50098;96064.61;;;;
2022/04/29 04:46:11;;;;;;;8.4;7.000001;;;;;;;1.42;57.50098;96064.61;;;;
2022/04/29 04:47:12;;;;;;;8.4;7.000001;;;;;;;1.42;57.50098;96064.61;;;;
2022/04/29 04:48:13;;;;;;;9.65;7.149999;;;;;;;1.53;57.53711;96071.36;;;;
2022/04/29 04:49:14;;;;;;;9.65;7.149999;;;;;;;1.53;57.53711;96071.36;;;;
2022/04/29 04:50:14;;;;;;;9.65;7.149999;;;;;;;1.53;57.53711;96071.36;;;;
2022/04/29 04:51:15;;;;;;;9.65;7.149999;;;;;;;1.53;57.53711;96071.36;;;;
2022/04/29 04:52:15;;;;;;;9.65;7.149999;;;;;;;1.53;57.53711;96071.36;;;;
2022/04/29 04:53:16;;;;;;;9.65;7.149999;;;;;;;1.53;57.53711;96071.36;;;;
2022/04/29 04:54:16;;;;;;;9.65;7.149999;;;;;;;1.53;57.53711;96071.36;;;;
2022/04/29 04:55:17;;;;;;;9.65;7.149999;;;;;;;1.53;57.53711;96071.36;;;;
2022/04/29 04:56:17;;;;;;;9.65;7.149999;;;;;;;1.53;57.53711;96071.36;;;;
2022/04/29 04:57:18;;;;;;;9.65;7.149999;;;;;;;1.53;57.53711;96071.36;;;;
2022/04/29 04:58:18;;;;;;;10.95;7.15;;;;;;;1.69;57.63184;96071.92;;;;
2022/04/29 04:59:19;;;;;;;10.95;7.15;;;;;;;1.69;57.63184;96071.92;;;;
2022/04/29 05:00:19;;;;;;;10.95;7.15;;;;;;;1.69;57.63184;96071.92;;;;
2022/04/29 05:01:20;;;;;;;10.95;7.15;;;;;;;1.69;57.63184;96071.92;;;;
2022/04/29 05:02:20;;;;;;;10.95;7.15;;;;;;;1.69;57.63184;96071.92;;;;
2022/04/29 05:03:21;;;;;;;10.95;7.15;;;;;;;1.69;57.63184;96071.92;;;;
2022/04/29 05:04:21;;;;;;;10.95;7.15;;;;;;;1.69;57.63184;96071.92;;;;
2022/04/29 05:05:22;;;;;;;10.95;7.15;;;;;;;1.69;57.63184;96071.92;;;;
2022/04/29 05:06:23;;;;;;;10.95;7.15;;;;;;;1.69;57.63184;96071.92;;;;
2022/04/29 05:07:23;;;;;;;10.95;7.15;;;;;;;1.69;57.63184;96071.92;;;;
2022/04/29 05:08:24;;;;;;;10.95;7.15;;;;;;;1.69;57.63184;96071.92;;;;
2022/04/29 05:09:25;;;;;;;12.45;7.8;;;;;;;1.99;57.6416;96072.64;;;;
2022/04/29 05:10:25;;;;;;;12.45;7.8;;;;;;;1.99;57.6416;96072.64;;;;
2022/04/29 05:11:26;;;;;;;12.45;7.8;;;;;;;1.99;57.6416;96072.64;;;;
2022/04/29 05:12:26;;;;;;;12.45;7.8;;;;;;;1.99;57.6416;96072.64;;;;
2022/04/29 05:13:27;;;;;;;12.45;7.8;;;;;;;1.99;57.6416;96072.64;;;;
2022/04/29 05:14:27;;;;;;;12.45;7.8;;;;;;;1.99;57.6416;96072.64;;;;
2022/04/29 05:15:28;;;;;;;12.45;7.8;;;;;;;1.99;57.6416;96072.64;;;;
2022/04/29 05:16:29;;;;;;;12.45;7.8;;;;;;;1.99;57.6416;96072.64;;;;
2022/04/29 05:17:30;;;;;;;12.45;7.8;;;;;;;1.99;57.6416;96072.64;;;;
2022/04/29 05:18:30;;;;;;;12.45;7.8;;;;;;;1.99;57.6416;96072.64;;;;
2022/04/29 05:19:31;;;;;;;10.75;8.15;;;;;;;2.47;57.5166;96066.43;;;;
2022/04/29 05:20:31;;;;;;;10.75;8.15;;;;;;;2.47;57.5166;96066.43;;;;
2022/04/29 05:21:32;;;;;;;10.75;8.15;;;;;;;2.47;57.5166;96066.43;;;;
2022/04/29 05:22:32;;;;;;;10.75;8.15;;;;;;;2.47;57.5166;96066.43;;;;
2022/04/29 05:23:35;;;;;;;10.75;8.15;;;;;;;2.47;57.5166;96066.43;;;;
2022/04/29 05:24:36;;;;;;;10.75;8.15;;;;;;;2.47;57.5166;96066.43;;;;
2022/04/29 05:25:36;;;;;;;10.75;8.15;;;;;;;2.47;57.5166;96066.43;;;;
2022/04/29 05:26:37;;;;;;;10.75;8.15;;;;;;;2.47;57.5166;96066.43;;;;
2022/04/29 05:27:37;;;;;;;10.75;8.15;;;;;;;2.47;57.5166;96066.43;;;;
2022/04/29 05:28:38;;;;;;;10.75;8.15;;;;;;;2.47;57.5166;96066.43;;;;
2022/04/29 05:29:38;;;;;;;10.75;8.15;;;;;;;2.47;57.5166;96066.43;;;;
2022/04/29 05:30:39;;;;;;;10.55;8.549999;;;;;;;3.09;57.2832;96076.42;;;;
2022/04/29 05:31:39;;;;;;;10.55;8.549999;;;;;;;3.09;57.2832;96076.42;;;;
2022/04/29 05:32:40;;;;;;;10.55;8.549999;;;;;;;3.09;57.2832;96076.42;;;;
2022/04/29 05:33:41;;;;;;;10.55;8.549999;;;;;;;3.09;57.2832;96076.42;;;;
2022/04/29 05:34:42;;;;;;;10.55;8.549999;;;;;;;3.09;57.2832;96076.42;;;;
2022/04/29 05:35:43;;;;;;;10.55;8.549999;;;;;;;3.09;57.2832;96076.42;;;;
2022/04/29 05:36:44;;;;;;;10.55;8.549999;;;;;;;3.09;57.2832;96076.42;;;;
2022/04/29 05:37:45;;;;;;;10.55;8.549999;;;;;;;3.09;57.2832;96076.42;;;;
2022/04/29 05:44:00;;;;;;;11.85;8.200001;;;;;;;3.77;57.23535;96067.31;;;;
2022/04/29 05:45:01;;;;;;;11.85;8.200001;;;;;;;3.77;57.23535;96067.31;;;;
2022/04/29 05:46:01;;;;;;;11.85;8.200001;;;;;;;3.77;57.23535;96067.31;;;;
2022/04/29 05:47:02;;;;;;;11.85;8.200001;;;;;;;3.77;57.23535;96067.31;;;;